Time;durP1;ratioP1;P1;durP2;ratioP2;P2;SDS_P1;SDS_P2;PMS_P1;PMS_P2;Temp;Humidity;BMP_temperature;BMP_pressure;BME280_temperature;BME280_humidity;BME280_pressure;Samples;Min_cycle;Max_cycle;Signal;HPM_P1;HPM_P2
2023/04/06 00:00:25;;;;;;;;;;;20.10;99.90;;;;;;5101427;28;19912;-70
2023/04/06 00:02:52;;;;;;;;;;;20.10;99.90;;;;;;5100297;28;21061;-68
2023/04/06 00:05:20;;;;;;;;;;;20.10;99.90;;;;;;5101647;28;19914;-64
2023/04/06 00:07:46;;;;;;;;;;;20.00;99.90;;;;;;5099819;28;20321;-65
2023/04/06 00:10:13;;;;;;;;;;;20.00;99.90;;;;;;5100589;28;19908;-65
2023/04/06 00:12:40;;;;;;;;;;;20.00;99.90;;;;;;5100895;28;20018;-67
2023/04/06 00:15:07;;;;;;;;;;;20.10;99.90;;;;;;5099840;28;19912;-67
2023/04/06 00:17:33;;;;;;;;;;;20.10;99.90;;;;;;5101224;28;20383;-67
2023/04/06 00:20:00;;;;;;;;;;;20.20;99.90;;;;;;5098599;28;20219;-67
2023/04/06 00:22:27;;;;;;;;;;;20.30;99.90;;;;;;5101422;28;20010;-66
2023/04/06 00:24:53;;;;;;;;;;;20.40;99.90;;;;;;5099468;28;19998;-70
2023/04/06 00:27:20;;;;;;;;;;;20.40;99.90;;;;;;5100108;28;19914;-69
2023/04/06 00:29:47;;;;;;;;;;;20.60;99.90;;;;;;5099283;28;19907;-67
2023/04/06 00:32:13;;;;;;;;;;;20.80;99.90;;;;;;5100162;28;20761;-68
2023/04/06 00:34:40;;;;;;;;;;;20.80;99.90;;;;;;5100613;28;19955;-68
2023/04/06 00:37:07;;;;;;;;;;;20.80;99.90;;;;;;5098564;28;19915;-69
2023/04/06 00:39:33;;;;;;;;;;;20.80;99.90;;;;;;5100327;28;19961;-68
2023/04/06 00:42:00;;;;;;;;;;;20.90;99.90;;;;;;5098936;28;19961;-70
2023/04/06 00:44:27;;;;;;;;;;;21.10;99.90;;;;;;5100575;28;19912;-71
2023/04/06 00:46:54;;;;;;;;;;;21.10;99.90;;;;;;5098506;28;19908;-66
2023/04/06 00:49:20;;;;;;;;;;;21.00;99.90;;;;;;5099259;28;19908;-67
2023/04/06 00:51:47;;;;;;;;;;;21.10;99.90;;;;;;5098971;28;19915;-70
2023/04/06 00:54:14;;;;;;;;;;;21.30;99.90;;;;;;5099408;28;19908;-67
2023/04/06 00:56:43;;;;;;;;;;;21.40;99.90;;;;;;5099737;28;19998;-68
2023/04/06 00:59:10;;;;;;;;;;;21.60;99.90;;;;;;5098224;28;20007;-69
2023/04/06 01:01:37;;;;;;;;;;;21.90;99.90;;;;;;5100248;28;19947;-71
2023/04/06 01:04:04;;;;;;;;;;;22.00;99.90;;;;;;5097844;28;20356;-69
2023/04/06 01:06:30;;;;;;;;;;;22.20;99.90;;;;;;5100193;28;19914;-69
2023/04/06 01:08:57;;;;;;;;;;;22.20;99.90;;;;;;5098356;28;19914;-66
2023/04/06 01:11:24;;;;;;;;;;;22.30;99.90;;;;;;5098819;28;19915;-70
2023/04/06 01:13:50;;;;;;;;;;;22.50;99.90;;;;;;5099017;28;19948;-68
2023/04/06 01:16:17;;;;;;;;;;;22.60;99.90;;;;;;5099307;28;19954;-70
2023/04/06 01:18:44;;;;;;;;;;;22.60;99.90;;;;;;5099979;28;19915;-67
2023/04/06 01:21:15;;;;;;;;;;;22.50;99.90;;;;;;5097522;28;20049;-66
2023/04/06 01:23:45;;;;;;;;;;;22.50;99.90;;;;;;5099236;28;19908;-67
2023/04/06 01:26:13;;;;;;;;;;;22.40;99.90;;;;;;5097274;28;19919;-68
2023/04/06 01:28:40;;;;;;;;;;;22.40;99.90;;;;;;5099041;28;19933;-67
2023/04/06 01:31:07;;;;;;;;;;;22.50;99.90;;;;;;5097867;28;19918;-69
2023/04/06 01:33:34;;;;;;;;;;;22.50;99.90;;;;;;5099586;28;20000;-67
2023/04/06 01:36:01;;;;;;;;;;;22.50;99.90;;;;;;5096243;28;20202;-69
2023/04/06 01:38:28;;;;;;;;;;;22.50;99.90;;;;;;5098325;28;19911;-67
2023/04/06 01:40:55;;;;;;;;;;;22.60;99.90;;;;;;5079433;28;20174;-66
2023/04/06 01:43:22;;;;;;;;;;;22.60;99.90;;;;;;5097888;28;19908;-70
2023/04/06 01:45:49;;;;;;;;;;;22.60;99.90;;;;;;5098927;28;19912;-66
2023/04/06 01:48:16;;;;;;;;;;;22.60;99.90;;;;;;5096972;28;19916;-71
2023/04/06 01:50:43;;;;;;;;;;;22.70;99.90;;;;;;5098616;28;20318;-66
2023/04/06 01:53:10;;;;;;;;;;;22.80;99.90;;;;;;5097134;28;19937;-67
2023/04/06 01:55:36;;;;;;;;;;;22.90;99.90;;;;;;5099307;28;19975;-66
2023/04/06 01:58:03;;;;;;;;;;;23.00;99.90;;;;;;5096696;28;19912;-64
2023/04/06 02:00:30;;;;;;;;;;;23.20;99.90;;;;;;5098199;28;19908;-66
2023/04/06 02:02:56;;;;;;;;;;;23.40;99.90;;;;;;5098449;28;20252;-66
2023/04/06 02:05:23;;;;;;;;;;;23.50;99.90;;;;;;5097537;28;19908;-68
2023/04/06 02:07:51;;;;;;;;;;;23.70;99.90;;;;;;5098572;28;20161;-66
2023/04/06 02:10:18;;;;;;;;;;;23.80;99.90;;;;;;5096425;28;20380;-68
2023/04/06 02:12:44;;;;;;;;;;;23.90;99.90;;;;;;5098529;28;19923;-66
2023/04/06 02:15:13;;;;;;;;;;;24.10;99.90;;;;;;5098489;28;19912;-67
2023/04/06 02:17:40;;;;;;;;;;;24.30;99.90;;;;;;5097806;28;19919;-68
2023/04/06 02:20:07;;;;;;;;;;;24.70;99.90;;;;;;5098313;28;20322;-65
2023/04/06 02:22:35;;;;;;;;;;;25.10;99.90;;;;;;5096159;28;20111;-66
2023/04/06 02:25:02;;;;;;;;;;;25.10;99.90;;;;;;5098301;28;20550;-66
2023/04/06 02:27:29;;;;;;;;;;;25.10;99.90;;;;;;5096152;28;20356;-66
2023/04/06 02:29:55;;;;;;;;;;;25.20;99.90;;;;;;5097939;28;19972;-68
2023/04/06 02:32:22;;;;;;;;;;;25.40;99.90;;;;;;5095710;28;19961;-68
2023/04/06 02:34:49;;;;;;;;;;;25.50;99.90;;;;;;5098406;28;20312;-71
2023/04/06 02:37:15;;;;;;;;;;;25.50;99.90;;;;;;5097705;28;19911;-68
2023/04/06 02:39:42;;;;;;;;;;;25.50;99.90;;;;;;5097345;28;19923;-70
2023/04/06 02:42:09;;;;;;;;;;;25.70;99.90;;;;;;5097523;28;19919;-66
2023/04/06 02:44:35;;;;;;;;;;;25.80;99.90;;;;;;5096409;28;19908;-67
2023/04/06 02:47:02;;;;;;;;;;;26.10;99.90;;;;;;5097972;28;19970;-66
2023/04/06 02:49:29;;;;;;;;;;;26.50;99.90;;;;;;5095722;28;19908;-67
2023/04/06 02:51:55;;;;;;;;;;;26.80;99.90;;;;;;5097513;28;20195;-67
2023/04/06 02:54:22;;;;;;;;;;;26.60;99.90;;;;;;5096787;28;20066;-68
2023/04/06 02:56:49;;;;;;;;;;;26.60;99.90;;;;;;5097758;28;19957;-68
2023/04/06 02:59:15;;;;;;;;;;;26.20;99.90;;;;;;5097372;28;20342;-71
2023/04/06 03:01:42;;;;;;;;;;;25.90;99.90;;;;;;5095059;28;20174;-66
2023/04/06 03:04:09;;;;;;;;;;;25.70;99.90;;;;;;5097420;28;19934;-69
2023/04/06 03:06:35;;;;;;;;;;;25.50;99.90;;;;;;5095677;28;19946;-67
2023/04/06 03:09:02;;;;;;;;;;;25.30;99.90;;;;;;5097771;28;19908;-67
2023/04/06 03:11:29;;;;;;;;;;;25.10;99.90;;;;;;5095131;28;20357;-66
2023/04/06 03:13:55;;;;;;;;;;;25.10;99.90;;;;;;5097558;28;19998;-71
2023/04/06 03:16:22;;;;;;;;;;;25.40;99.90;;;;;;5097799;28;19961;-66
2023/04/06 03:18:49;;;;;;;;;;;25.60;99.90;;;;;;5096633;28;20276;-67
2023/04/06 03:21:15;;;;;;;;;;;25.50;99.90;;;;;;5097461;28;19908;-66
2023/04/06 03:23:42;;;;;;;;;;;25.50;99.90;;;;;;5095577;28;20345;-70
2023/04/06 03:26:09;;;;;;;;;;;25.60;99.90;;;;;;5097494;28;19930;-67
2023/04/06 03:28:36;;;;;;;;;;;25.60;99.90;;;;;;5097642;28;19912;-64
2023/04/06 03:31:02;;;;;;;;;;;25.70;99.90;;;;;;5101114;28;20292;-68
2023/04/06 03:33:29;;;;;;;;;;;25.80;99.90;;;;;;5099915;28;20396;-68
2023/04/06 03:35:56;;;;;;;;;;;25.60;99.90;;;;;;5102098;28;19908;-68
2023/04/06 03:38:22;;;;;;;;;;;25.50;99.90;;;;;;5101659;28;19908;-66
2023/04/06 03:40:49;;;;;;;;;;;25.40;99.90;;;;;;5098756;28;19959;-69
2023/04/06 03:43:16;;;;;;;;;;;25.90;99.90;;;;;;5099782;28;19951;-70
2023/04/06 03:45:42;;;;;;;;;;;26.30;99.00;;;;;;5098449;28;19912;-70
2023/04/06 03:48:09;;;;;;;;;;;26.40;99.70;;;;;;5101528;28;19919;-70
2023/04/06 03:50:36;;;;;;;;;;;26.40;98.90;;;;;;5098719;28;20342;-66
2023/04/06 03:53:05;;;;;;;;;;;26.30;99.00;;;;;;5100957;28;19915;-68
2023/04/06 03:55:32;;;;;;;;;;;26.00;99.60;;;;;;5100282;28;19908;-69
2023/04/06 03:57:58;;;;;;;;;;;25.80;98.90;;;;;;5100828;28;19908;-69
2023/04/06 04:00:25;;;;;;;;;;;25.80;99.90;;;;;;5101999;28;19907;-69
2023/04/06 04:02:52;;;;;;;;;;;26.00;99.50;;;;;;5100099;28;20101;-66
2023/04/06 04:05:18;;;;;;;;;;;26.40;98.70;;;;;;5102352;28;20268;-66
2023/04/06 04:07:45;;;;;;;;;;;26.40;98.50;;;;;;5099571;28;20352;-73
2023/04/06 04:10:12;;;;;;;;;;;26.10;98.10;;;;;;5101077;28;19907;-73
2023/04/06 04:12:38;;;;;;;;;;;25.80;98.30;;;;;;5098614;28;20354;-71
2023/04/06 04:15:05;;;;;;;;;;;25.70;98.90;;;;;;5100970;28;19907;-71
2023/04/06 04:17:32;;;;;;;;;;;25.30;99.70;;;;;;5101089;28;19994;-66
2023/04/06 04:19:58;;;;;;;;;;;25.10;99.70;;;;;;5081549;28;19965;-65
2023/04/06 04:22:27;;;;;;;;;;;25.00;99.90;;;;;;5082311;28;19940;-68
2023/04/06 04:24:54;;;;;;;;;;;24.90;99.90;;;;;;5098518;28;19908;-67
2023/04/06 04:27:21;;;;;;;;;;;24.60;99.90;;;;;;5100456;28;20264;-66
2023/04/06 04:29:48;;;;;;;;;;;24.40;99.90;;;;;;5098533;28;19904;-68
2023/04/06 04:32:15;;;;;;;;;;;24.30;99.90;;;;;;5100247;28;19927;-65
2023/04/06 04:34:41;;;;;;;;;;;24.40;99.90;;;;;;5097997;28;19907;-66
2023/04/06 04:37:08;;;;;;;;;;;24.50;99.90;;;;;;5100551;28;19908;-68
2023/04/06 04:39:35;;;;;;;;;;;24.40;99.90;;;;;;5098736;28;20372;-67
2023/04/06 04:42:01;;;;;;;;;;;24.50;99.90;;;;;;5099555;28;20189;-64
2023/04/06 04:44:28;;;;;;;;;;;24.90;99.90;;;;;;5099975;28;19911;-64
2023/04/06 04:46:55;;;;;;;;;;;25.50;99.90;;;;;;5098318;28;20075;-66
2023/04/06 04:49:21;;;;;;;;;;;26.10;99.90;;;;;;5100071;28;19943;-68
2023/04/06 04:51:51;;;;;;;;;;;26.30;98.90;;;;;;5097829;28;20186;-65
2023/04/06 04:54:18;;;;;;;;;;;26.60;98.30;;;;;;5100152;28;19908;-65
2023/04/06 04:56:45;;;;;;;;;;;26.40;98.50;;;;;;5097623;28;19930;-66
2023/04/06 04:59:11;;;;;;;;;;;26.20;98.50;;;;;;5099765;28;20109;-65
2023/04/06 05:01:38;;;;;;;;;;;26.00;98.50;;;;;;5100095;28;19914;-65
2023/04/06 05:04:05;;;;;;;;;;;25.70;98.90;;;;;;5099035;28;19907;-66
2023/04/06 05:06:31;;;;;;;;;;;25.60;98.80;;;;;;5100063;28;20015;-66
2023/04/06 05:08:58;;;;;;;;;;;25.40;99.20;;;;;;5097690;28;20189;-71
2023/04/06 05:11:26;;;;;;;;;;;25.30;99.30;;;;;;5099833;28;20284;-69
2023/04/06 05:13:52;;;;;;;;;;;25.10;99.60;;;;;;5097874;28;20410;-65
2023/04/06 05:16:19;;;;;;;;;;;25.10;99.90;;;;;;5099673;28;20283;-65
2023/04/06 05:18:47;;;;;;;;;;;25.10;99.90;;;;;;5097803;28;19939;-67
2023/04/06 05:21:14;;;;;;;;;;;25.20;99.90;;;;;;5098477;28;19929;-69
2023/04/06 05:23:41;;;;;;;;;;;25.30;99.90;;;;;;5098783;28;20323;-67
2023/04/06 05:26:07;;;;;;;;;;;25.40;99.70;;;;;;5097621;28;19908;-65
2023/04/06 05:28:34;;;;;;;;;;;25.80;99.90;;;;;;5098858;28;19947;-65
2023/04/06 05:31:01;;;;;;;;;;;25.80;99.20;;;;;;5097412;28;19908;-64
2023/04/06 05:33:27;;;;;;;;;;;25.70;98.70;;;;;;5099173;28;20279;-66
2023/04/06 05:35:54;;;;;;;;;;;25.50;98.60;;;;;;5097622;28;20186;-64
2023/04/06 05:38:20;;;;;;;;;;;25.40;98.70;;;;;;5098923;28;19912;-66
2023/04/06 05:40:47;;;;;;;;;;;25.10;99.30;;;;;;5098408;28;19920;-66
2023/04/06 05:43:14;;;;;;;;;;;24.80;99.70;;;;;;5097857;28;19930;-70
2023/04/06 05:45:40;;;;;;;;;;;24.80;99.90;;;;;;5096617;28;19908;-65
2023/04/06 05:48:07;;;;;;;;;;;24.60;99.90;;;;;;5096155;28;20363;-65
2023/04/06 05:50:34;;;;;;;;;;;24.50;99.90;;;;;;5098638;28;19907;-65
2023/04/06 05:53:00;;;;;;;;;;;24.40;99.90;;;;;;5096907;28;19923;-66
2023/04/06 05:55:27;;;;;;;;;;;24.10;99.90;;;;;;5098650;28;19908;-64
2023/04/06 05:57:54;;;;;;;;;;;23.80;99.90;;;;;;5083254;28;20424;-69
2023/04/06 06:00:21;;;;;;;;;;;23.70;99.90;;;;;;5094274;28;20356;-67
2023/04/06 06:02:47;;;;;;;;;;;23.60;99.90;;;;;;5097672;28;19961;-67
2023/04/06 06:05:14;;;;;;;;;;;23.50;99.90;;;;;;5096826;27;19918;-64
2023/04/06 06:07:41;;;;;;;;;;;23.50;99.90;;;;;;5100950;27;20265;-68
2023/04/06 06:10:08;;;;;;;;;;;23.40;99.90;;;;;;5099781;27;20015;-64
2023/04/06 06:12:35;;;;;;;;;;;23.40;99.90;;;;;;5097497;28;19956;-68
2023/04/06 06:15:01;;;;;;;;;;;23.30;99.90;;;;;;5095188;28;19916;-69
2023/04/06 06:17:28;;;;;;;;;;;23.40;99.90;;;;;;5097210;28;19907;-68
2023/04/06 06:19:55;;;;;;;;;;;23.40;99.90;;;;;;5096790;28;19916;-66
2023/04/06 06:22:22;;;;;;;;;;;23.30;99.90;;;;;;5097382;28;19908;-66
2023/04/06 06:24:49;;;;;;;;;;;23.40;99.90;;;;;;5098308;28;20356;-64
2023/04/06 06:27:16;;;;;;;;;;;23.30;99.90;;;;;;5096135;28;20060;-70
2023/04/06 06:29:43;;;;;;;;;;;23.20;99.90;;;;;;5097723;28;19908;-64
2023/04/06 06:32:10;;;;;;;;;;;23.20;99.90;;;;;;5095010;28;19916;-64
2023/04/06 06:34:37;;;;;;;;;;;23.10;99.90;;;;;;5092483;28;19911;-64
2023/04/06 06:37:03;;;;;;;;;;;23.00;99.90;;;;;;5094664;28;19908;-65
2023/04/06 06:39:30;;;;;;;;;;;22.90;99.90;;;;;;5096113;28;19915;-64
2023/04/06 06:41:56;;;;;;;;;;;22.80;99.90;;;;;;5094446;28;19985;-65
2023/04/06 06:44:23;;;;;;;;;;;22.80;99.90;;;;;;5097548;28;19915;-66
2023/04/06 06:46:50;;;;;;;;;;;22.70;99.90;;;;;;5097810;28;20073;-67
2023/04/06 06:49:16;;;;;;;;;;;22.50;99.90;;;;;;5095850;28;19912;-64
2023/04/06 06:51:43;;;;;;;;;;;22.40;99.90;;;;;;5092899;28;20007;-67
2023/04/06 06:54:10;;;;;;;;;;;22.20;99.90;;;;;;5086179;28;19986;-65
2023/04/06 06:56:37;;;;;;;;;;;22.20;99.90;;;;;;5092544;28;19907;-71
2023/04/06 06:59:05;;;;;;;;;;;22.20;99.90;;;;;;5095462;28;19941;-65
2023/04/06 07:01:35;;;;;;;;;;;22.10;99.90;;;;;;5093976;28;19908;-65
2023/04/06 07:04:02;;;;;;;;;;;22.10;99.90;;;;;;5095915;28;19916;-68
2023/04/06 07:06:28;;;;;;;;;;;22.00;99.90;;;;;;5084771;28;19910;-66
2023/04/06 07:08:55;;;;;;;;;;;21.90;99.90;;;;;;5077624;28;19916;-70
2023/04/06 07:11:22;;;;;;;;;;;21.80;99.90;;;;;;5074850;28;19912;-68
2023/04/06 07:13:48;;;;;;;;;;;21.80;99.90;;;;;;5077097;28;19912;-67
2023/04/06 07:16:15;;;;;;;;;;;21.70;99.90;;;;;;5075172;28;19961;-68
2023/04/06 07:18:42;;;;;;;;;;;21.80;99.90;;;;;;5077196;28;19916;-70
2023/04/06 07:21:08;;;;;;;;;;;21.80;99.90;;;;;;5082595;28;19909;-68
2023/04/06 07:23:35;;;;;;;;;;;21.70;99.90;;;;;;5093176;28;20045;-66
2023/04/06 07:26:01;;;;;;;;;;;21.70;99.90;;;;;;5093419;28;19907;-67
2023/04/06 07:28:28;;;;;;;;;;;21.60;99.90;;;;;;5095638;28;19956;-67
2023/04/06 07:30:55;;;;;;;;;;;21.60;99.90;;;;;;5096574;28;19912;-67
2023/04/06 07:33:21;;;;;;;;;;;21.60;99.90;;;;;;5095366;28;20228;-64
2023/04/06 07:35:48;;;;;;;;;;;21.50;99.90;;;;;;5097632;28;20347;-69
2023/04/06 07:38:14;;;;;;;;;;;21.50;99.90;;;;;;5095209;28;20057;-65
2023/04/06 07:40:41;;;;;;;;;;;21.40;99.90;;;;;;5096855;28;19927;-66
2023/04/06 07:43:08;;;;;;;;;;;21.40;99.90;;;;;;5096554;28;19973;-71
2023/04/06 07:45:34;;;;;;;;;;;21.40;99.90;;;;;;5098037;28;19961;-67
2023/04/06 07:48:01;;;;;;;;;;;21.20;99.90;;;;;;5097473;28;19908;-67
2023/04/06 07:50:28;;;;;;;;;;;21.20;99.90;;;;;;5095006;28;20156;-70
2023/04/06 07:52:54;;;;;;;;;;;21.20;99.90;;;;;;5097045;28;20022;-70
2023/04/06 07:55:21;;;;;;;;;;;21.10;99.90;;;;;;5076923;28;20356;-71
2023/04/06 07:57:48;;;;;;;;;;;21.00;99.90;;;;;;5097175;28;20176;-69
2023/04/06 08:00:14;;;;;;;;;;;21.00;99.90;;;;;;5095374;28;19907;-67
2023/04/06 08:02:41;;;;;;;;;;;20.90;99.90;;;;;;5097623;28;19961;-71
2023/04/06 08:05:08;;;;;;;;;;;20.90;99.90;;;;;;5097422;28;20002;-68
2023/04/06 08:07:36;;;;;;;;;;;20.90;99.90;;;;;;5095971;28;19943;-66
2023/04/06 08:10:02;;;;;;;;;;;20.80;99.90;;;;;;5096830;28;19908;-65
2023/04/06 08:12:29;;;;;;;;;;;20.70;99.90;;;;;;5094650;28;20181;-66
2023/04/06 08:14:56;;;;;;;;;;;20.70;99.90;;;;;;5099545;28;19964;-66
2023/04/06 08:17:23;;;;;;;;;;;20.60;99.90;;;;;;5098630;28;19904;-66
2023/04/06 08:19:50;;;;;;;;;;;20.50;99.90;;;;;;5100260;28;19908;-66
2023/04/06 08:22:16;;;;;;;;;;;20.50;99.90;;;;;;5098753;28;19908;-68
2023/04/06 08:24:43;;;;;;;;;;;20.40;99.90;;;;;;5101146;28;19918;-70
2023/04/06 08:27:09;;;;;;;;;;;20.40;99.90;;;;;;5101113;28;20287;-67
2023/04/06 08:29:36;;;;;;;;;;;20.30;99.90;;;;;;5099285;28;20105;-65
2023/04/06 08:32:04;;;;;;;;;;;20.20;99.90;;;;;;5100166;28;20094;-66
2023/04/06 08:34:32;;;;;;;;;;;20.20;99.90;;;;;;5098123;28;20161;-71
2023/04/06 08:36:59;;;;;;;;;;;20.20;99.90;;;;;;5101384;28;19908;-70
2023/04/06 08:39:27;;;;;;;;;;;20.10;99.90;;;;;;5099107;28;19908;-66
2023/04/06 08:41:56;;;;;;;;;;;20.00;99.90;;;;;;5100195;28;19916;-66
2023/04/06 08:44:23;;;;;;;;;;;20.00;99.90;;;;;;5098139;28;19908;-66
2023/04/06 08:46:50;;;;;;;;;;;20.00;99.90;;;;;;5099789;28;19995;-67
2023/04/06 08:49:17;;;;;;;;;;;20.00;99.90;;;;;;5099655;28;19914;-67
2023/04/06 08:51:44;;;;;;;;;;;19.90;99.90;;;;;;5099373;28;20386;-69
2023/04/06 08:54:10;;;;;;;;;;;19.90;99.90;;;;;;5099641;28;19908;-70
2023/04/06 08:56:40;;;;;;;;;;;19.80;99.90;;;;;;5097994;28;20090;-70
2023/04/06 08:59:07;;;;;;;;;;;19.80;99.90;;;;;;5099793;28;19907;-70
2023/04/06 09:01:36;;;;;;;;;;;19.80;99.90;;;;;;5097746;28;19907;-65
2023/04/06 09:04:08;;;;;;;;;;;19.80;99.90;;;;;;5099641;28;19923;-68
2023/04/06 09:06:36;;;;;;;;;;;19.70;99.90;;;;;;5097409;28;19908;-68
2023/04/06 09:09:03;;;;;;;;;;;19.70;99.90;;;;;;5099755;28;20371;-65
2023/04/06 09:11:41;;;;;;;;;;;19.60;99.90;;;;;;5097887;28;19964;-67
2023/04/06 09:14:07;;;;;;;;;;;19.70;99.90;;;;;;5099598;28;19911;-65
2023/04/06 09:16:40;;;;;;;;;;;19.60;99.90;;;;;;5097508;28;19930;-66
2023/04/06 09:19:06;;;;;;;;;;;19.50;99.90;;;;;;5099481;28;20352;-66
2023/04/06 09:21:33;;;;;;;;;;;19.40;99.90;;;;;;5097720;28;20372;-66
2023/04/06 09:24:00;;;;;;;;;;;19.40;99.90;;;;;;5099183;28;19915;-64
2023/04/06 09:26:30;;;;;;;;;;;19.40;99.90;;;;;;5097004;28;19953;-66
2023/04/06 09:29:00;;;;;;;;;;;19.40;99.90;;;;;;5099423;28;19912;-66
2023/04/06 09:31:33;;;;;;;;;;;19.30;99.90;;;;;;5097322;28;20091;-66
2023/04/06 09:34:00;;;;;;;;;;;19.30;99.90;;;;;;5099188;28;20352;-65
2023/04/06 09:36:31;;;;;;;;;;;19.20;99.90;;;;;;5097838;28;19915;-68
2023/04/06 09:38:59;;;;;;;;;;;19.20;99.90;;;;;;5099059;28;19908;-70
2023/04/06 09:41:27;;;;;;;;;;;19.20;99.90;;;;;;5097858;28;19931;-68
2023/04/06 09:44:04;;;;;;;;;;;19.20;99.90;;;;;;5099238;28;19907;-69
2023/04/06 09:46:33;;;;;;;;;;;19.10;99.90;;;;;;5097102;28;19966;-68
2023/04/06 09:49:02;;;;;;;;;;;19.10;99.90;;;;;;5099031;28;20268;-69
2023/04/06 09:51:30;;;;;;;;;;;19.10;99.90;;;;;;5098441;28;19915;-71
2023/04/06 09:54:01;;;;;;;;;;;19.00;99.90;;;;;;5099725;28;20329;-71
2023/04/06 09:56:28;;;;;;;;;;;19.00;99.90;;;;;;5098342;28;20367;-69
2023/04/06 09:58:57;;;;;;;;;;;19.00;99.90;;;;;;5098750;28;19952;-69
2023/04/06 10:01:26;;;;;;;;;;;19.00;99.90;;;;;;5099321;28;19914;-69
2023/04/06 10:03:56;;;;;;;;;;;18.90;99.90;;;;;;5097637;28;20004;-70
2023/04/06 10:06:25;;;;;;;;;;;18.90;99.90;;;;;;5098768;28;19908;-66
2023/04/06 10:08:54;;;;;;;;;;;18.90;99.90;;;;;;5097102;28;20094;-70
2023/04/06 10:11:21;;;;;;;;;;;18.80;99.90;;;;;;5098222;28;19935;-71
2023/04/06 10:13:48;;;;;;;;;;;18.70;99.90;;;;;;5096065;28;19912;-68
2023/04/06 10:16:18;;;;;;;;;;;18.70;99.90;;;;;;5098131;28;19911;-67
2023/04/06 10:18:52;;;;;;;;;;;18.70;99.90;;;;;;5096528;28;20318;-67
2023/04/06 10:21:23;;;;;;;;;;;18.70;99.90;;;;;;5098038;28;19960;-68
2023/04/06 10:23:56;;;;;;;;;;;18.60;99.90;;;;;;5096190;28;20517;-67
2023/04/06 10:26:23;;;;;;;;;;;18.60;99.90;;;;;;5097999;28;20131;-69
2023/04/06 10:28:50;;;;;;;;;;;18.60;99.90;;;;;;5096374;28;20289;-66
2023/04/06 10:31:27;;;;;;;;;;;18.50;99.90;;;;;;5098203;28;19907;-68
2023/04/06 10:33:56;;;;;;;;;;;18.50;99.90;;;;;;5096021;28;19944;-67
2023/04/06 10:36:26;;;;;;;;;;;18.50;99.90;;;;;;5097872;28;19963;-66
2023/04/06 10:38:59;;;;;;;;;;;18.50;99.90;;;;;;5094880;28;20089;-66
2023/04/06 10:41:35;;;;;;;;;;;18.50;99.90;;;;;;5098069;28;20186;-66
2023/04/06 10:44:02;;;;;;;;;;;18.40;99.90;;;;;;5097893;28;19908;-67
2023/04/06 10:46:30;;;;;;;;;;;18.40;99.90;;;;;;5079851;28;20303;-66
2023/04/06 10:48:57;;;;;;;;;;;18.30;99.90;;;;;;5095490;28;20510;-66
2023/04/06 10:51:28;;;;;;;;;;;18.30;99.90;;;;;;5079440;28;20371;-66
2023/04/06 10:53:55;;;;;;;;;;;18.30;99.90;;;;;;5095583;28;20563;-65
2023/04/06 10:56:23;;;;;;;;;;;18.30;99.90;;;;;;5097750;28;19908;-66
2023/04/06 10:58:51;;;;;;;;;;;18.20;99.90;;;;;;5095787;28;19912;-65
2023/04/06 11:01:19;;;;;;;;;;;18.20;99.90;;;;;;5097821;28;20006;-65
2023/04/06 11:03:54;;;;;;;;;;;18.10;99.90;;;;;;5096176;28;19968;-65
2023/04/06 11:06:24;;;;;;;;;;;18.10;99.90;;;;;;5098283;28;19915;-68
2023/04/06 11:08:51;;;;;;;;;;;18.10;99.90;;;;;;5095567;28;19908;-68
2023/04/06 11:11:19;;;;;;;;;;;18.00;99.90;;;;;;5097615;28;19912;-70
2023/04/06 11:13:48;;;;;;;;;;;18.00;99.90;;;;;;5095219;28;19912;-69
2023/04/06 11:16:16;;;;;;;;;;;18.00;99.90;;;;;;5098043;28;19915;-69
2023/04/06 11:18:53;;;;;;;;;;;18.00;99.90;;;;;;5096494;28;19912;-70
2023/04/06 11:21:20;;;;;;;;;;;18.00;99.90;;;;;;5079402;28;19989;-69
2023/04/06 11:23:47;;;;;;;;;;;18.00;99.90;;;;;;5095094;28;19915;-69
2023/04/06 11:26:14;;;;;;;;;;;17.90;99.90;;;;;;5097720;28;19990;-67
2023/04/06 11:28:42;;;;;;;;;;;18.00;99.90;;;;;;5097419;28;19908;-67
2023/04/06 11:31:10;;;;;;;;;;;17.90;99.90;;;;;;5096865;28;20045;-68
2023/04/06 11:33:38;;;;;;;;;;;17.90;99.90;;;;;;5097705;28;19955;-67
2023/04/06 11:36:05;;;;;;;;;;;17.90;99.90;;;;;;5095137;28;20577;-66
2023/04/06 11:38:32;;;;;;;;;;;17.90;99.90;;;;;;5097297;28;20349;-67
2023/04/06 11:40:59;;;;;;;;;;;17.80;99.90;;;;;;5076844;28;19934;-69
2023/04/06 11:43:31;;;;;;;;;;;17.80;99.90;;;;;;5097645;28;19953;-70
2023/04/06 11:46:06;;;;;;;;;;;17.80;99.90;;;;;;5095462;28;19908;-67
2023/04/06 11:48:33;;;;;;;;;;;17.70;99.90;;;;;;5097289;28;19961;-68
2023/04/06 11:51:01;;;;;;;;;;;17.80;99.90;;;;;;5099399;28;19911;-67
2023/04/06 11:53:29;;;;;;;;;;;17.80;99.90;;;;;;5101391;28;19920;-69
2023/04/06 11:55:56;;;;;;;;;;;17.70;99.90;;;;;;5098883;28;19908;-65
2023/04/06 11:58:22;;;;;;;;;;;17.70;99.90;;;;;;5101430;28;19908;-67
2023/04/06 12:00:49;;;;;;;;;;;17.70;99.90;;;;;;5100089;28;19907;-69
2023/04/06 12:03:16;;;;;;;;;;;17.70;99.90;;;;;;5101011;28;20407;-67
2023/04/06 12:05:43;;;;;;;;;;;17.70;99.90;;;;;;5101297;28;20388;-66
2023/04/06 12:08:10;;;;;;;;;;;17.70;99.90;;;;;;5099106;28;19907;-65
2023/04/06 12:10:36;;;;;;;;;;;17.60;99.90;;;;;;5100877;28;19957;-66
2023/04/06 12:13:04;;;;;;;;;;;17.60;99.90;;;;;;5098866;28;19916;-67
2023/04/06 12:15:30;;;;;;;;;;;17.60;99.90;;;;;;5100710;28;19908;-68
2023/04/06 12:17:57;;;;;;;;;;;17.50;99.90;;;;;;5098524;28;19908;-66
2023/04/06 12:20:24;;;;;;;;;;;17.60;99.90;;;;;;5100665;28;20162;-66
2023/04/06 12:22:51;;;;;;;;;;;17.60;99.90;;;;;;5100453;28;19912;-66
2023/04/06 12:25:17;;;;;;;;;;;17.50;99.90;;;;;;5100311;28;19912;-70
2023/04/06 12:27:44;;;;;;;;;;;17.50;99.90;;;;;;5100585;28;19922;-70
2023/04/06 12:30:11;;;;;;;;;;;17.50;99.90;;;;;;5098380;28;20086;-66
2023/04/06 12:32:37;;;;;;;;;;;17.40;99.90;;;;;;5100140;28;19916;-68
2023/04/06 12:35:04;;;;;;;;;;;17.40;99.90;;;;;;5098615;28;19960;-69
2023/04/06 12:37:31;;;;;;;;;;;17.40;99.90;;;;;;5100204;28;20285;-69
2023/04/06 12:39:58;;;;;;;;;;;17.40;99.90;;;;;;5098241;28;20371;-67
2023/04/06 12:42:25;;;;;;;;;;;17.50;99.90;;;;;;5100933;28;20330;-66
2023/04/06 12:44:52;;;;;;;;;;;17.40;99.90;;;;;;5099973;28;19995;-67
2023/04/06 12:47:18;;;;;;;;;;;17.40;99.90;;;;;;5099403;28;20529;-67
2023/04/06 12:49:45;;;;;;;;;;;17.50;99.90;;;;;;5099809;28;19954;-66
2023/04/06 12:52:11;;;;;;;;;;;17.40;99.90;;;;;;5098067;28;20621;-65
2023/04/06 12:54:38;;;;;;;;;;;17.40;99.90;;;;;;5100177;28;20318;-66
2023/04/06 12:57:05;;;;;;;;;;;17.40;99.90;;;;;;5098189;28;19908;-65
2023/04/06 12:59:35;;;;;;;;;;;17.40;99.90;;;;;;5100271;28;20114;-66
2023/04/06 13:02:01;;;;;;;;;;;17.40;99.90;;;;;;5097028;28;19960;-67
2023/04/06 13:04:28;;;;;;;;;;;17.40;99.90;;;;;;5100166;28;19908;-67
2023/04/06 13:06:54;;;;;;;;;;;17.40;99.90;;;;;;5100520;28;19915;-68
2023/04/06 13:09:22;;;;;;;;;;;17.50;99.90;;;;;;5098117;28;20274;-67
2023/04/06 13:11:48;;;;;;;;;;;17.40;99.90;;;;;;5099410;28;19911;-65
2023/04/06 13:14:15;;;;;;;;;;;17.40;99.90;;;;;;5097876;28;19908;-66
2023/04/06 13:16:42;;;;;;;;;;;17.40;99.90;;;;;;5099191;28;19927;-67
2023/04/06 13:19:10;;;;;;;;;;;17.40;99.90;;;;;;5098288;28;20345;-67
2023/04/06 13:21:37;;;;;;;;;;;17.40;99.90;;;;;;5100034;28;19912;-65
2023/04/06 13:24:04;;;;;;;;;;;17.30;99.90;;;;;;5098704;28;19947;-66
2023/04/06 13:26:31;;;;;;;;;;;17.30;99.90;;;;;;5100498;28;19948;-66
2023/04/06 13:29:01;;;;;;;;;;;17.30;99.90;;;;;;5099194;28;20439;-68
2023/04/06 13:31:27;;;;;;;;;;;17.30;99.90;;;;;;5099493;28;20148;-65
2023/04/06 13:33:54;;;;;;;;;;;17.20;99.90;;;;;;5099186;28;19955;-65
2023/04/06 13:36:21;;;;;;;;;;;17.20;99.90;;;;;;5097300;28;19915;-64
2023/04/06 13:38:47;;;;;;;;;;;17.20;99.90;;;;;;5099339;28;19915;-69
2023/04/06 13:41:21;;;;;;;;;;;17.20;99.90;;;;;;5096938;28;19964;-65
2023/04/06 13:43:47;;;;;;;;;;;17.10;99.90;;;;;;5099321;28;19933;-67
2023/04/06 13:46:15;;;;;;;;;;;17.20;99.90;;;;;;5096895;28;19961;-65
2023/04/06 13:48:41;;;;;;;;;;;17.10;99.90;;;;;;5098838;28;19908;-65
2023/04/06 13:51:09;;;;;;;;;;;17.10;99.90;;;;;;5097364;28;19907;-66
2023/04/06 13:53:36;;;;;;;;;;;17.10;99.90;;;;;;5099220;28;19977;-67
2023/04/06 13:56:03;;;;;;;;;;;17.10;99.90;;;;;;5099178;28;19908;-67
2023/04/06 13:58:30;;;;;;;;;;;17.00;99.90;;;;;;5098140;28;19908;-66
2023/04/06 14:01:02;;;;;;;;;;;17.00;99.90;;;;;;5098369;28;20016;-66
2023/04/06 14:03:29;;;;;;;;;;;17.00;99.90;;;;;;5097128;28;20552;-69
2023/04/06 14:05:56;;;;;;;;;;;17.00;99.90;;;;;;5098280;28;19907;-66
2023/04/06 14:08:22;;;;;;;;;;;17.00;99.90;;;;;;5096691;28;19914;-65
2023/04/06 14:10:49;;;;;;;;;;;17.00;99.90;;;;;;5098864;28;19915;-66
2023/04/06 14:13:16;;;;;;;;;;;17.00;99.90;;;;;;5095885;28;19916;-65
2023/04/06 14:15:43;;;;;;;;;;;16.90;99.90;;;;;;5098639;28;19908;-66